createdAt,value
2017-11-25T00:02:49.651Z,96484.97
2017-11-25T00:04:29.059Z,96491.44
2017-11-25T00:06:07.848Z,96489.69
2017-11-25T00:07:46.921Z,96564.31
2017-11-25T00:09:24.169Z,96648.00
2017-11-25T00:11:01.543Z,96650.13
2017-11-25T00:12:42.260Z,96599.28
2017-11-25T00:14:19.519Z,96575.11
2017-11-25T00:15:56.822Z,96629.42
2017-11-25T00:17:37.946Z,96701.49
2017-11-25T00:19:16.679Z,96759.13
2017-11-25T00:20:55.102Z,96760.83
2017-11-25T00:22:32.897Z,96779.16
2017-11-25T00:24:10.160Z,96786.88
2017-11-25T00:25:49.287Z,96833.44
2017-11-25T00:27:28.639Z,96878.17
2017-11-25T00:29:06.732Z,96938.66
2017-11-25T00:30:44.451Z,97032.80
2017-11-25T00:32:22.737Z,97214.86
2017-11-25T00:33:59.644Z,97406.61
2017-11-25T00:35:36.438Z,97509.48
2017-11-25T00:37:13.619Z,97598.91
2017-11-25T00:38:50.870Z,97639.93
2017-11-25T00:40:28.498Z,97641.05
2017-11-25T00:42:07.613Z,97677.45
2017-11-25T00:43:44.666Z,97679.22
2017-11-25T00:45:22.286Z,97679.27
2017-11-25T00:47:03.133Z,97672.27
2017-11-25T00:48:40.267Z,97663.16
2017-11-25T00:50:17.597Z,97650.84
2017-11-25T00:51:56.275Z,97650.88
2017-11-25T00:53:33.183Z,97660.50
2017-11-25T00:55:11.422Z,97641.30
2017-11-25T00:56:50.050Z,97619.07
2017-11-25T00:58:27.286Z,97589.51
2017-11-25T01:00:04.639Z,97631.27
2017-11-25T01:01:41.768Z,97291.64
2017-11-25T01:03:19.404Z,97095.66
2017-11-25T01:05:01.553Z,96821.36
2017-11-25T01:06:39.311Z,96556.61
2017-11-25T01:08:16.924Z,96296.28
2017-11-25T01:09:54.823Z,96158.63
2017-11-25T01:11:32.367Z,96025.11
2017-11-25T01:13:14.852Z,95884.55
2017-11-25T01:14:52.010Z,95822.02
2017-11-25T01:16:29.108Z,95809.95
2017-11-25T01:18:06.461Z,95811.70
2017-11-25T01:19:43.525Z,95847.59
2017-11-25T01:21:21.620Z,95827.19
2017-11-25T01:22:58.536Z,95814.76
2017-11-25T01:24:36.598Z,95812.54
2017-11-25T01:26:14.062Z,95812.17
2017-11-25T01:27:50.838Z,95821.53
2017-11-25T01:29:27.629Z,95819.00
2017-11-25T01:31:05.083Z,95776.30
2017-11-25T01:32:42.542Z,95752.95
2017-11-25T01:34:21.482Z,95749.52
2017-11-25T01:36:01.766Z,95715.48
2017-11-25T01:37:41.427Z,95690.23
2017-11-25T01:39:21.381Z,95688.41
2017-11-25T01:41:01.971Z,95693.09
2017-11-25T01:42:40.373Z,95739.73
2017-11-25T01:44:20.057Z,95733.61
2017-11-25T01:45:58.512Z,95739.68
2017-11-25T01:47:35.873Z,95696.10
2017-11-25T01:49:13.633Z,95694.31
2017-11-25T01:50:52.385Z,95676.35
2017-11-25T01:52:29.332Z,95616.05
2017-11-25T01:54:06.108Z,95620.23
2017-11-25T01:55:45.072Z,95656.55
2017-11-25T01:57:23.545Z,95711.27
2017-11-25T01:59:00.551Z,95737.09
2017-11-25T02:00:37.699Z,95716.81
2017-11-25T02:02:16.456Z,95725.88
2017-11-25T02:03:58.759Z,95714.22
2017-11-25T02:05:35.960Z,95672.87
2017-11-25T02:07:13.713Z,95620.61
2017-11-25T02:08:51.084Z,95601.28
2017-11-25T02:10:28.497Z,95615.44
2017-11-25T02:12:05.579Z,95629.84
2017-11-25T02:13:43.218Z,95627.20
2017-11-25T02:15:21.290Z,95594.27
2017-11-25T02:17:00.980Z,95604.66
2017-11-25T02:18:38.824Z,95648.69
2017-11-25T02:20:15.816Z,95677.51
2017-11-25T02:21:52.913Z,95656.02
2017-11-25T02:23:30.231Z,95600.39
2017-11-25T02:25:12.504Z,95571.95
2017-11-25T02:26:52.420Z,95568.61
2017-11-25T02:28:32.922Z,95551.31
2017-11-25T02:30:11.430Z,95585.76
2017-11-25T02:31:49.461Z,95617.66
2017-11-25T02:33:26.520Z,95636.27
2017-11-25T02:35:03.544Z,95665.53
2017-11-25T02:36:42.120Z,95684.95
2017-11-25T02:38:20.022Z,95668.06
2017-11-25T02:39:58.371Z,95652.64
2017-11-25T02:41:35.471Z,95657.76
2017-11-25T02:43:12.948Z,95702.33
2017-11-25T02:44:49.876Z,95708.30
2017-11-25T02:46:29.108Z,95748.02
2017-11-25T02:48:08.410Z,95740.05
2017-11-25T02:49:45.907Z,95763.40
2017-11-25T02:51:22.852Z,95699.22
2017-11-25T02:52:59.758Z,95689.80
2017-11-25T02:54:36.898Z,95685.34
2017-11-25T02:56:14.681Z,95702.59
2017-11-25T02:57:52.145Z,95684.86
2017-11-25T02:59:29.958Z,95600.33
2017-11-25T03:01:07.200Z,95589.72
2017-11-25T03:02:44.482Z,95597.09
2017-11-25T03:04:21.519Z,95623.19
2017-11-25T03:05:58.573Z,95643.94
2017-11-25T03:07:35.454Z,95606.40
2017-11-25T03:09:13.375Z,95623.86
2017-11-25T03:10:50.276Z,95575.80
2017-11-25T03:12:27.913Z,95584.97
2017-11-25T03:14:04.767Z,95543.82
2017-11-25T03:15:45.221Z,95581.02
2017-11-25T03:17:24.907Z,95620.29
2017-11-25T03:19:05.123Z,95679.30
2017-11-25T03:20:43.505Z,95709.47
2017-11-25T03:22:22.721Z,95725.47
2017-11-25T03:23:59.925Z,95722.41
2017-11-25T03:25:38.902Z,95716.07
2017-11-25T03:27:15.944Z,95738.89
2017-11-25T03:28:53.946Z,95717.70
2017-11-25T03:30:31.207Z,95696.63
2017-11-25T03:32:08.029Z,95760.08
2017-11-25T03:33:44.857Z,95732.82
2017-11-25T03:35:22.323Z,95701.80
2017-11-25T03:36:59.138Z,95698.32
2017-11-25T03:38:36.038Z,95704.91
2017-11-25T03:40:12.853Z,95711.83
2017-11-25T03:41:50.314Z,95667.27
2017-11-25T03:43:27.103Z,95723.94
2017-11-25T03:45:03.935Z,95773.80
2017-11-25T03:46:41.100Z,95762.19
2017-11-25T03:48:18.535Z,95847.67
2017-11-25T03:49:55.473Z,95851.92
2017-11-25T03:51:33.112Z,95830.30
2017-11-25T03:53:10.507Z,95843.77
2017-11-25T03:54:48.293Z,95921.17
2017-11-25T03:56:26.538Z,95925.39
2017-11-25T03:58:04.231Z,95869.72
2017-11-25T03:59:41.066Z,95805.87
2017-11-25T04:02:53.450Z,95888.77
2017-11-25T04:04:30.979Z,95886.02
2017-11-25T04:06:08.090Z,95888.70
2017-11-25T04:07:45.329Z,95851.22
2017-11-25T04:09:24.664Z,95885.64
2017-11-25T04:11:02.483Z,95698.00
2017-11-25T04:12:39.592Z,95531.72
2017-11-25T04:14:17.852Z,95480.40
2017-11-25T04:15:55.640Z,95512.64
2017-11-25T04:17:32.460Z,95442.53
2017-11-25T04:19:09.189Z,95555.41
2017-11-25T04:20:47.580Z,95556.25
2017-11-25T04:22:31.080Z,95504.50
2017-11-25T04:24:08.498Z,95639.86
2017-11-25T04:25:45.350Z,95585.13
2017-11-25T04:27:22.652Z,95545.86
2017-11-25T04:29:00.550Z,95660.14
2017-11-25T04:30:37.527Z,95721.72
2017-11-25T04:32:14.451Z,95808.37
2017-11-25T04:33:51.778Z,95842.03
2017-11-25T04:35:29.325Z,95832.52
2017-11-25T04:37:06.402Z,95762.33
2017-11-25T04:40:23.705Z,95755.47
2017-11-25T04:42:02.943Z,95858.42
2017-11-25T04:43:40.921Z,95869.30
2017-11-25T04:45:19.982Z,95893.88
2017-11-25T04:46:56.939Z,95857.95
2017-11-25T04:48:34.540Z,95847.73
2017-11-25T04:50:11.318Z,95784.70
2017-11-25T04:51:48.023Z,95751.50
2017-11-25T04:53:24.844Z,95797.27
2017-11-25T04:55:01.678Z,95791.19
2017-11-25T04:56:38.485Z,95773.43
2017-11-25T04:58:16.384Z,95808.37
2017-11-25T04:59:53.533Z,95841.23
2017-11-25T05:01:30.654Z,95842.08
2017-11-25T05:03:09.844Z,95811.91
2017-11-25T05:04:48.753Z,95745.91
2017-11-25T05:06:29.450Z,95720.92
2017-11-25T05:08:08.646Z,95733.91
2017-11-25T05:09:45.612Z,95753.83
2017-11-25T05:11:22.497Z,95778.71
2017-11-25T05:12:59.289Z,95773.11
2017-11-25T05:14:36.976Z,95793.83
2017-11-25T05:16:14.405Z,95810.64
2017-11-25T05:17:54.652Z,95850.80
2017-11-25T05:19:32.499Z,95877.51
2017-11-25T05:21:09.399Z,95915.98
2017-11-25T05:22:46.791Z,95968.80
2017-11-25T05:24:23.799Z,95945.42
2017-11-25T05:26:01.730Z,95932.44
2017-11-25T05:27:38.730Z,95940.61
2017-11-25T05:29:16.777Z,95982.09
2017-11-25T05:30:53.502Z,95920.74
2017-11-25T05:32:34.074Z,95905.63
2017-11-25T05:34:11.937Z,95929.01
2017-11-25T05:35:50.179Z,95914.77
2017-11-25T05:37:26.914Z,95893.94
2017-11-25T05:39:05.873Z,95863.33
2017-11-25T05:40:42.949Z,95842.66
2017-11-25T05:42:21.357Z,95846.99
2017-11-25T05:43:58.531Z,95864.66
2017-11-25T05:45:35.803Z,95803.86
2017-11-25T05:47:15.094Z,95883.30
2017-11-25T05:48:52.634Z,95906.48
2017-11-25T05:50:29.578Z,95841.71
2017-11-25T05:52:08.622Z,95854.81
2017-11-25T05:53:48.145Z,95911.77
2017-11-25T05:55:27.852Z,95964.52
2017-11-25T05:57:05.343Z,96037.53
2017-11-25T05:58:42.396Z,96011.12
2017-11-25T06:00:24.019Z,96018.05
2017-11-25T06:02:03.143Z,96021.52
2017-11-25T06:03:42.937Z,96017.63
2017-11-25T06:05:20.905Z,96065.63
2017-11-25T06:06:59.406Z,96075.12
2017-11-25T06:08:43.963Z,96080.30
2017-11-25T06:10:22.453Z,96082.89
2017-11-25T06:11:59.554Z,96084.27
2017-11-25T06:13:37.056Z,95968.80
2017-11-25T06:15:16.790Z,95913.03
2017-11-25T06:16:53.691Z,95893.98
2017-11-25T06:18:32.147Z,95901.81
2017-11-25T06:20:09.903Z,95865.08
2017-11-25T06:21:48.825Z,95834.56
2017-11-25T06:23:26.423Z,95832.16
2017-11-25T06:25:06.505Z,95885.02
2017-11-25T06:26:45.103Z,95927.34
2017-11-25T06:28:25.403Z,95939.45
2017-11-25T06:30:03.163Z,96015.09
2017-11-25T06:31:41.810Z,96007.32
2017-11-25T06:33:21.505Z,96002.52
2017-11-25T06:35:01.614Z,95988.70
2017-11-25T06:36:41.804Z,95960.13
2017-11-25T06:38:20.208Z,95964.94
2017-11-25T06:39:59.808Z,96027.17
2017-11-25T06:41:38.184Z,96041.50
2017-11-25T06:43:16.271Z,96073.05
2017-11-25T06:44:54.508Z,96039.44
2017-11-25T06:46:32.298Z,96050.08
2017-11-25T06:48:15.797Z,96082.52
2017-11-25T06:49:55.694Z,96125.78
2017-11-25T06:51:34.297Z,96186.69
2017-11-25T06:53:13.392Z,96236.59
2017-11-25T06:54:51.778Z,96258.58
2017-11-25T06:56:34.393Z,96256.88
2017-11-25T06:58:15.172Z,96268.59
2017-11-25T06:59:52.572Z,96291.48
2017-11-25T07:01:29.523Z,96308.82
2017-11-25T07:03:06.741Z,96304.95
2017-11-25T07:04:44.408Z,96232.33
2017-11-25T07:06:21.561Z,96326.67
2017-11-25T07:07:59.163Z,96417.91
2017-11-25T07:09:38.483Z,96468.25
2017-11-25T07:11:16.166Z,96495.94
2017-11-25T07:12:55.683Z,96514.95
2017-11-25T07:14:35.385Z,96475.04
2017-11-25T07:16:14.890Z,96430.99
2017-11-25T07:17:51.979Z,96400.13
2017-11-25T07:19:30.136Z,96410.57
2017-11-25T07:21:06.937Z,96413.17
2017-11-25T07:22:43.804Z,96373.72
2017-11-25T07:24:21.573Z,96380.24
2017-11-25T07:26:00.608Z,96379.34
2017-11-25T07:27:37.556Z,96375.52
2017-11-25T07:29:16.414Z,96389.35
2017-11-25T07:30:54.733Z,96380.66
2017-11-25T07:32:32.431Z,96391.58
2017-11-25T07:34:09.261Z,96412.80
2017-11-25T07:35:49.094Z,96415.31
2017-11-25T07:37:25.943Z,96404.53
2017-11-25T07:39:05.737Z,96432.37
2017-11-25T07:40:44.829Z,96434.02
2017-11-25T07:42:23.229Z,96452.59
2017-11-25T07:44:00.603Z,96486.53
2017-11-25T07:45:37.585Z,96466.92
2017-11-25T07:47:14.427Z,96451.84
2017-11-25T07:48:54.229Z,96399.76
2017-11-25T07:50:31.379Z,96382.89
2017-11-25T07:52:08.930Z,96316.23
2017-11-25T07:53:46.261Z,96311.47
2017-11-25T07:55:23.200Z,96290.73
2017-11-25T07:57:02.173Z,96292.91
2017-11-25T07:58:39.164Z,96213.22
2017-11-25T08:00:17.501Z,96167.02
2017-11-25T08:01:54.965Z,96065.31
2017-11-25T08:03:33.091Z,96029.52
2017-11-25T08:05:09.902Z,96044.19
2017-11-25T08:06:46.809Z,96048.05
2017-11-25T08:08:23.977Z,96042.02
2017-11-25T08:10:00.802Z,96067.00
2017-11-25T08:11:37.649Z,96053.20
2017-11-25T08:13:15.428Z,95981.88
2017-11-25T08:14:52.750Z,95942.14
2017-11-25T08:16:30.789Z,95928.30
2017-11-25T08:18:07.723Z,95923.91
2017-11-25T08:19:45.446Z,95941.25
2017-11-25T08:21:22.788Z,95936.45
2017-11-25T08:23:01.509Z,95934.00
2017-11-25T08:24:41.000Z,95965.00
2017-11-25T08:26:18.661Z,95975.41
2017-11-25T08:27:56.723Z,95951.60
2017-11-25T08:29:33.627Z,95965.95
2017-11-25T08:31:10.809Z,95971.97
2017-11-25T08:32:48.004Z,95963.25
2017-11-25T08:34:25.414Z,95965.79
2017-11-25T08:36:02.716Z,96020.01
2017-11-25T08:37:40.580Z,96063.25
2017-11-25T08:39:17.697Z,96073.61
2017-11-25T08:40:55.400Z,96010.91
2017-11-25T08:42:32.557Z,95915.35
2017-11-25T08:44:09.603Z,95913.08
2017-11-25T08:45:47.680Z,95943.48
2017-11-25T08:47:26.797Z,95966.37
2017-11-25T08:49:04.222Z,96011.76
2017-11-25T08:50:41.302Z,96024.66
2017-11-25T08:52:19.942Z,96054.58
2017-11-25T08:53:59.155Z,96098.56
2017-11-25T08:55:38.253Z,96123.38
2017-11-25T08:57:17.841Z,96196.37
2017-11-25T08:58:57.605Z,96206.75
2017-11-25T09:00:38.008Z,96136.20
2017-11-25T09:02:17.956Z,96133.19
2017-11-25T09:03:56.664Z,96153.95
2017-11-25T09:05:33.897Z,96173.02
2017-11-25T09:07:11.290Z,96183.02
2017-11-25T09:08:48.319Z,96176.88
2017-11-25T09:10:26.214Z,96152.14
2017-11-25T09:12:04.205Z,96155.27
2017-11-25T09:13:41.800Z,96202.98
2017-11-25T09:15:20.565Z,96232.86
2017-11-25T09:16:57.588Z,96236.59
2017-11-25T09:18:34.780Z,96216.72
2017-11-25T09:20:14.022Z,96175.13
2017-11-25T09:21:53.478Z,96099.52
2017-11-25T09:23:33.471Z,96019.91
2017-11-25T09:25:10.485Z,95987.16
2017-11-25T09:26:49.683Z,96022.17
2017-11-25T09:28:26.798Z,96064.05
2017-11-25T09:30:04.540Z,96115.97
2017-11-25T09:31:41.682Z,96196.47
2017-11-25T09:33:25.774Z,96220.58
2017-11-25T09:35:05.399Z,96240.98
2017-11-25T09:36:44.378Z,96211.48
2017-11-25T09:38:22.522Z,96249.56
2017-11-25T09:39:59.408Z,96224.45
2017-11-25T09:41:36.428Z,96122.86
2017-11-25T09:43:13.426Z,96086.44
2017-11-25T09:44:52.489Z,96025.05
2017-11-25T09:46:30.638Z,95890.66
2017-11-25T09:48:07.522Z,95780.67
2017-11-25T09:49:44.406Z,95751.86
2017-11-25T09:51:25.967Z,95752.23
2017-11-25T09:53:03.369Z,95785.78
2017-11-25T09:54:41.965Z,95784.68
2017-11-25T09:56:19.409Z,95775.02
2017-11-25T09:57:56.652Z,95791.86
2017-11-25T09:59:33.641Z,95831.13
2017-11-25T10:01:12.641Z,95836.78
2017-11-25T10:02:49.379Z,95883.88
2017-11-25T10:04:28.168Z,95966.42
2017-11-25T10:06:05.100Z,96023.81
2017-11-25T10:07:44.821Z,96058.81
2017-11-25T10:09:23.231Z,96055.38
2017-11-25T10:11:19.369Z,96069.64
2017-11-25T10:12:57.035Z,96072.77
2017-11-25T10:14:36.000Z,96022.55
2017-11-25T10:16:16.389Z,96036.79
2017-11-25T10:17:54.472Z,96045.52
2017-11-25T10:19:31.704Z,96112.91
2017-11-25T10:21:09.009Z,96154.37
2017-11-25T10:22:46.167Z,96201.13
2017-11-25T10:24:22.878Z,96196.74
2017-11-25T10:25:59.796Z,96164.79
2017-11-25T10:27:39.420Z,96063.09
2017-11-25T10:29:16.647Z,96002.14
2017-11-25T10:30:54.434Z,95955.98
2017-11-25T10:32:31.409Z,95978.05
2017-11-25T10:34:08.486Z,96015.99
2017-11-25T10:35:45.380Z,96072.16
2017-11-25T10:37:22.436Z,96104.65
2017-11-25T10:38:59.277Z,96080.83
2017-11-25T10:40:36.906Z,96009.06
2017-11-25T10:42:14.028Z,95966.27
2017-11-25T10:43:50.901Z,95972.02
2017-11-25T10:45:31.165Z,96009.12
2017-11-25T10:47:11.510Z,96063.62
2017-11-25T10:48:48.570Z,96056.22
2017-11-25T10:50:26.216Z,96075.78
2017-11-25T10:52:03.031Z,96079.08
2017-11-25T10:53:40.387Z,96039.38
2017-11-25T10:55:17.400Z,96028.20
2017-11-25T10:56:54.553Z,96061.45
2017-11-25T10:58:31.526Z,96106.81
2017-11-25T11:00:11.515Z,96202.08
2017-11-25T11:01:52.625Z,96287.72
2017-11-25T11:03:31.310Z,96382.52
2017-11-25T11:05:08.961Z,96461.33
2017-11-25T11:06:45.852Z,96432.22
2017-11-25T11:08:23.725Z,96419.18
2017-11-25T11:10:02.000Z,96459.53
2017-11-25T11:11:39.511Z,96492.88
2017-11-25T11:13:16.579Z,96523.27
2017-11-25T11:14:53.557Z,96574.87
2017-11-25T11:16:30.641Z,96623.03
2017-11-25T11:18:07.922Z,96646.84
2017-11-25T11:19:45.564Z,96678.16
2017-11-25T11:21:22.645Z,96751.44
2017-11-25T11:23:01.202Z,96767.92
2017-11-25T11:24:38.592Z,96841.82
2017-11-25T11:26:16.160Z,96875.74
2017-11-25T11:27:54.785Z,96866.60
2017-11-25T11:29:34.091Z,96804.11
2017-11-25T11:31:12.433Z,96750.64
2017-11-25T11:32:49.201Z,96739.88
2017-11-25T11:34:26.053Z,96791.89
2017-11-25T11:36:03.714Z,96846.23
2017-11-25T11:37:41.322Z,96852.33
2017-11-25T11:39:18.278Z,96915.27
2017-11-25T11:40:55.358Z,96938.22
2017-11-25T11:42:32.599Z,96963.48
2017-11-25T11:44:11.555Z,97000.43
2017-11-25T11:45:49.086Z,97034.38
2017-11-25T11:47:26.212Z,96992.59
2017-11-25T11:49:03.212Z,96731.13
2017-11-25T11:50:42.218Z,96714.70
2017-11-25T11:52:19.307Z,96789.24
2017-11-25T11:53:57.033Z,96765.38
2017-11-25T11:55:33.862Z,96751.92
2017-11-25T11:57:12.148Z,96682.52
2017-11-25T11:58:50.410Z,96662.55
2017-11-25T12:00:29.174Z,96540.69
2017-11-25T12:02:09.170Z,96580.08
2017-11-25T12:03:54.073Z,96654.22
2017-11-25T12:05:33.036Z,96636.95
2017-11-25T12:07:10.087Z,96575.34
2017-11-25T12:08:46.996Z,96527.62
2017-11-25T12:10:25.399Z,96479.59
2017-11-25T12:12:02.583Z,96497.74
2017-11-25T12:13:39.672Z,96423.16
2017-11-25T12:15:20.108Z,96396.31
2017-11-25T12:16:58.444Z,96344.91
2017-11-25T12:18:37.984Z,96314.96
2017-11-25T12:20:16.878Z,96351.77
2017-11-25T12:21:56.886Z,96356.05
2017-11-25T12:23:34.054Z,96347.41
2017-11-25T12:25:11.009Z,96372.92
2017-11-25T12:26:47.954Z,96382.94
2017-11-25T12:28:25.593Z,96442.76
2017-11-25T12:30:02.559Z,96457.46
2017-11-25T12:31:44.174Z,96488.58
2017-11-25T12:33:27.373Z,96563.62
2017-11-25T12:35:05.724Z,96584.86
2017-11-25T12:36:42.934Z,96617.41
2017-11-25T12:38:20.345Z,96677.73
2017-11-25T12:39:57.432Z,96703.77
2017-11-25T12:41:34.962Z,96728.05
2017-11-25T12:43:16.565Z,96696.29
2017-11-25T12:44:54.317Z,96658.62
2017-11-25T12:46:31.935Z,96685.96
2017-11-25T12:48:10.069Z,96660.33
2017-11-25T12:49:48.406Z,96657.30
2017-11-25T12:51:26.299Z,96686.91
2017-11-25T12:53:04.196Z,96673.28
2017-11-25T12:54:41.514Z,96675.61
2017-11-25T12:56:22.187Z,96612.62
2017-11-25T12:58:06.097Z,96610.08
2017-11-25T12:59:44.993Z,96652.14
2017-11-25T13:01:23.638Z,96670.81
2017-11-25T13:03:03.065Z,96668.63
2017-11-25T13:04:40.827Z,96616.08
2017-11-25T13:06:17.867Z,96596.63
2017-11-25T13:07:55.533Z,96638.17
2017-11-25T13:09:33.809Z,96684.27
2017-11-25T13:11:11.587Z,96667.78
2017-11-25T13:12:49.660Z,96698.09
2017-11-25T13:14:29.817Z,96674.70
2017-11-25T13:16:10.325Z,96606.66
2017-11-25T13:17:49.720Z,96652.05
2017-11-25T13:19:36.228Z,96686.44
2017-11-25T13:21:16.026Z,96675.69
2017-11-25T13:22:53.341Z,96698.52
2017-11-25T13:24:31.109Z,96706.80
2017-11-25T13:26:09.575Z,96691.98
2017-11-25T13:27:47.326Z,96659.83
2017-11-25T13:29:24.442Z,96647.35
2017-11-25T13:31:01.688Z,96621.33
2017-11-25T13:32:43.803Z,96608.18
2017-11-25T13:34:22.752Z,96575.34
2017-11-25T13:36:20.074Z,96652.05
2017-11-25T13:38:01.800Z,96642.53
2017-11-25T13:39:40.350Z,96599.61
2017-11-25T13:41:22.576Z,96574.39
2017-11-25T13:43:02.379Z,96568.34
2017-11-25T13:44:40.391Z,96658.58
2017-11-25T13:46:19.229Z,96654.17
2017-11-25T13:47:56.621Z,96663.39
2017-11-25T13:49:59.511Z,96698.52
2017-11-25T13:51:46.452Z,96775.36
2017-11-25T13:53:32.361Z,96836.19
2017-11-25T13:55:29.200Z,96780.56
2017-11-25T13:57:14.847Z,96700.27
2017-11-25T13:59:02.224Z,96669.91
2017-11-25T14:00:57.078Z,96765.08
2017-11-25T14:02:35.679Z,96853.98
2017-11-25T14:04:13.549Z,96875.74
2017-11-25T14:05:52.339Z,96725.02
2017-11-25T14:07:31.798Z,96744.58
2017-11-25T14:09:09.519Z,96755.42
2017-11-25T14:10:46.771Z,96717.72
2017-11-25T14:12:25.571Z,96815.05
2017-11-25T14:14:04.008Z,96819.74
2017-11-25T14:15:50.045Z,96739.36
2017-11-25T14:17:26.978Z,96843.14
2017-11-25T14:19:03.745Z,96901.67
2017-11-25T14:20:41.994Z,97035.19
2017-11-25T14:22:20.306Z,97006.45
2017-11-25T14:23:57.700Z,96884.33
2017-11-25T14:25:36.065Z,96878.27
2017-11-25T14:27:14.398Z,97009.58
2017-11-25T14:28:51.928Z,96891.77
2017-11-25T14:30:32.159Z,96849.63
2017-11-25T14:32:09.548Z,96758.97
2017-11-25T14:33:47.396Z,96890.48
2017-11-25T14:35:24.892Z,96996.15
2017-11-25T14:37:02.857Z,96968.75
2017-11-25T14:38:40.266Z,97042.55
2017-11-25T14:40:17.987Z,97117.84
2017-11-25T14:42:00.062Z,97110.88
2017-11-25T14:43:40.318Z,97057.81
2017-11-25T14:45:22.725Z,96970.70
2017-11-25T14:47:04.270Z,97061.33
2017-11-25T14:48:46.672Z,96949.98
2017-11-25T14:50:26.424Z,97039.55
2017-11-25T14:52:04.034Z,97075.70
2017-11-25T14:53:44.179Z,96999.48
2017-11-25T14:55:22.993Z,96958.70
2017-11-25T14:56:59.887Z,97005.17
2017-11-25T14:58:39.112Z,96936.08
2017-11-25T15:00:20.603Z,96739.78
2017-11-25T15:02:04.043Z,96689.09
2017-11-25T15:03:44.807Z,96802.41
2017-11-25T15:05:21.870Z,96822.77
2017-11-25T15:07:01.109Z,96914.80
2017-11-25T15:08:38.093Z,96927.80
2017-11-25T15:10:15.021Z,96865.33
2017-11-25T15:11:52.645Z,96840.54
2017-11-25T15:13:29.554Z,96747.19
2017-11-25T15:15:09.006Z,96837.47
2017-11-25T15:16:48.713Z,96807.52
2017-11-25T15:18:28.699Z,96884.33
2017-11-25T15:20:06.454Z,96922.61
2017-11-25T15:21:43.467Z,96993.42
2017-11-25T15:23:48.830Z,96925.52
2017-11-25T15:25:30.740Z,96817.94
2017-11-25T15:27:12.047Z,96838.36
2017-11-25T15:28:51.739Z,96939.59
2017-11-25T15:30:36.948Z,96887.78
2017-11-25T15:32:17.648Z,96844.05
2017-11-25T15:33:56.550Z,96701.11
2017-11-25T15:35:36.353Z,96539.73
2017-11-25T15:37:17.055Z,96543.33
2017-11-25T15:38:56.255Z,96683.78
2017-11-25T15:40:38.557Z,96751.81
2017-11-25T15:42:28.763Z,96751.92
2017-11-25T15:44:07.967Z,96588.16
2017-11-25T15:45:47.988Z,96441.72
2017-11-25T15:47:32.269Z,96375.09
2017-11-25T15:49:13.564Z,96557.05
2017-11-25T15:51:08.528Z,96485.20
2017-11-25T15:52:51.749Z,96362.15
2017-11-25T15:54:31.060Z,96473.81
2017-11-25T15:56:10.983Z,96557.47
2017-11-25T15:57:51.044Z,96576.91
2017-11-25T15:59:32.349Z,96510.55
2017-11-25T16:01:15.344Z,96462.85
2017-11-25T16:02:55.837Z,96420.88
2017-11-25T16:04:38.336Z,96338.14
2017-11-25T16:06:25.050Z,96309.20
2017-11-25T16:08:14.741Z,96245.27
2017-11-25T16:10:01.369Z,96184.84
2017-11-25T16:11:42.932Z,96170.73
2017-11-25T16:13:24.347Z,96203.63
2017-11-25T16:15:05.934Z,96234.37
2017-11-25T16:16:49.747Z,96159.50
2017-11-25T16:18:31.039Z,96201.93
2017-11-25T16:20:11.233Z,96232.62
2017-11-25T16:21:50.675Z,96244.31
2017-11-25T16:23:47.135Z,96273.22
2017-11-25T16:25:26.144Z,96273.73
2017-11-25T16:27:19.456Z,96266.41
2017-11-25T16:29:02.645Z,96244.37
2017-11-25T16:32:27.267Z,96329.45
2017-11-25T16:34:06.543Z,96286.67
2017-11-25T16:35:47.664Z,96269.44
2017-11-25T16:37:30.044Z,96361.15
2017-11-25T16:39:11.037Z,96341.13
2017-11-25T16:40:50.446Z,96302.63
2017-11-25T16:42:30.150Z,96243.42
2017-11-25T16:44:13.184Z,96224.81
2017-11-25T16:46:06.069Z,96206.61
2017-11-25T16:47:46.775Z,96259.00
2017-11-25T16:49:33.156Z,96297.44
2017-11-25T16:52:51.155Z,96269.38
2017-11-25T16:54:32.961Z,96266.79
2017-11-25T16:56:17.363Z,96230.53
2017-11-25T16:57:58.750Z,96325.27
2017-11-25T16:59:37.784Z,96417.43
2017-11-25T17:01:20.395Z,96459.53
2017-11-25T17:03:04.988Z,96484.55
2017-11-25T17:04:44.801Z,96413.36
2017-11-25T17:06:26.277Z,96329.03
2017-11-25T17:08:07.099Z,96264.20
2017-11-25T17:09:46.700Z,96270.70
2017-11-25T17:11:26.428Z,96226.14
2017-11-25T17:15:03.615Z,96088.66
2017-11-25T17:16:44.818Z,96191.08
2017-11-25T17:18:23.505Z,96229.97
2017-11-25T17:20:05.006Z,96204.39
2017-11-25T17:21:44.011Z,96228.79
2017-11-25T17:23:23.824Z,96264.62
2017-11-25T17:25:02.523Z,96228.79
2017-11-25T17:26:41.425Z,96131.67
2017-11-25T17:28:20.023Z,96025.90
2017-11-25T17:30:03.519Z,95959.77
2017-11-25T17:31:43.912Z,95920.32
2017-11-25T17:33:22.703Z,95962.35
2017-11-25T17:35:03.699Z,96021.17
2017-11-25T17:36:46.216Z,95995.11
2017-11-25T17:38:26.524Z,95975.22
2017-11-25T17:40:07.986Z,96030.61
2017-11-25T17:41:48.191Z,96031.40
2017-11-25T17:43:29.711Z,96130.48
2017-11-25T17:45:09.802Z,96201.32
2017-11-25T17:46:48.702Z,96204.39
2017-11-25T17:48:28.590Z,96173.28
2017-11-25T17:50:09.506Z,96213.91
2017-11-25T17:51:49.082Z,96136.02
2017-11-25T17:53:27.683Z,96032.45
2017-11-25T17:55:07.591Z,95938.08
2017-11-25T17:56:46.692Z,95927.69
2017-11-25T17:58:25.590Z,96050.88
2017-11-25T18:00:04.988Z,96130.91
2017-11-25T18:01:44.784Z,96143.36
2017-11-25T18:03:23.473Z,96149.88
2017-11-25T18:05:02.715Z,96194.84
2017-11-25T18:06:42.421Z,96217.41
2017-11-25T18:08:22.141Z,96201.83
2017-11-25T18:10:03.338Z,96226.91
2017-11-25T18:11:43.049Z,96213.49
2017-11-25T18:13:23.563Z,96192.67
2017-11-25T18:15:05.185Z,96209.16
2017-11-25T18:16:46.865Z,96162.38
2017-11-25T18:18:25.569Z,96222.55
2017-11-25T18:20:04.969Z,96250.64
2017-11-25T18:21:45.457Z,96249.70
2017-11-25T18:23:25.762Z,96181.87
2017-11-25T18:25:14.161Z,96244.64
2017-11-25T18:27:08.867Z,96110.58
2017-11-25T18:28:51.106Z,95946.80
2017-11-25T18:30:36.082Z,96007.80
2017-11-25T18:32:19.310Z,95961.41
2017-11-25T18:34:00.873Z,95831.08
2017-11-25T18:35:40.194Z,95799.06
2017-11-25T18:39:06.239Z,95873.73
2017-11-25T18:40:47.693Z,95980.39
2017-11-25T18:42:27.382Z,95948.41
2017-11-25T18:44:08.476Z,96059.97
2017-11-25T18:45:52.884Z,96077.66
2017-11-25T18:47:38.665Z,96066.45
2017-11-25T18:49:27.572Z,96101.38
2017-11-25T18:51:09.992Z,96062.00
2017-11-25T18:52:50.469Z,95954.80
2017-11-25T18:54:30.174Z,95680.84
2017-11-25T18:56:10.220Z,95527.77
2017-11-25T18:57:49.675Z,95577.47
2017-11-25T18:59:33.896Z,95673.22
2017-11-25T19:01:19.049Z,95823.95
2017-11-25T19:03:18.278Z,95939.34
2017-11-25T19:05:08.178Z,95903.05
2017-11-25T19:06:51.277Z,95870.63
2017-11-25T19:08:38.383Z,95939.30
2017-11-25T19:10:19.986Z,95944.39
2017-11-25T19:12:01.633Z,95946.55
2017-11-25T19:13:42.528Z,95922.06
2017-11-25T19:15:30.096Z,95717.22
2017-11-25T19:17:14.979Z,95670.05
2017-11-25T19:18:57.504Z,95686.01
2017-11-25T19:20:48.292Z,95698.53
2017-11-25T19:22:41.024Z,95706.29
2017-11-25T19:24:38.898Z,95616.27
2017-11-25T19:26:51.651Z,95510.98
2017-11-25T19:28:51.567Z,95601.16
2017-11-25T19:30:33.350Z,95621.46
2017-11-25T19:32:15.961Z,95600.97
2017-11-25T19:34:02.582Z,95683.05
2017-11-25T19:35:57.230Z,95776.07
2017-11-25T19:37:41.599Z,95835.69
2017-11-25T19:39:26.964Z,95893.94